Time;durP1;ratioP1;P1;durP2;ratioP2;P2;SDS_P1;SDS_P2;PMS_P1;PMS_P2;Temp;Humidity;BMP_temperature;BMP_pressure;BME280_temperature;BME280_humidity;BME280_pressure;Samples;Min_cycle;Max_cycle;Signal;HPM_P1;HPM_P2
2021/05/11 00:00:23;;;;;;;11.65;7.72;;;14.70;99.90;;;;;;5033805;28;20295;-77
2021/05/11 00:02:50;;;;;;;14.60;7.63;;;14.70;99.90;;;;;;5033945;28;20537;-75
2021/05/11 00:05:17;;;;;;;12.30;7.65;;;14.60;99.90;;;;;;5033615;28;20330;-73
2021/05/11 00:07:43;;;;;;;15.02;8.05;;;14.50;99.90;;;;;;5034016;28;20835;-77
2021/05/11 00:10:10;;;;;;;9.77;7.60;;;14.50;99.90;;;;;;5033499;28;20675;-76
2021/05/11 00:12:37;;;;;;;11.65;7.30;;;14.40;99.90;;;;;;5034047;28;20358;-75
2021/05/11 00:15:05;;;;;;;11.60;7.15;;;14.40;99.90;;;;;;5033449;28;20228;-74
2021/05/11 00:17:31;;;;;;;10.75;6.18;;;14.40;99.90;;;;;;5033437;28;20210;-73
2021/05/11 00:19:59;;;;;;;12.13;6.85;;;14.50;99.90;;;;;;5033264;28;20263;-75
2021/05/11 00:22:26;;;;;;;11.65;7.47;;;14.50;99.90;;;;;;5033758;28;20204;-77
2021/05/11 00:24:52;;;;;;;13.05;7.15;;;14.40;99.90;;;;;;5033383;28;20343;-75
2021/05/11 00:27:18;;;;;;;10.75;7.05;;;14.50;99.90;;;;;;5033310;28;20227;-76
2021/05/11 00:29:45;;;;;;;8.82;6.55;;;14.60;99.90;;;;;;5033568;28;20572;-76
2021/05/11 00:32:11;;;;;;;11.20;6.72;;;14.70;99.90;;;;;;5033150;28;20646;-75
2021/05/11 00:34:37;;;;;;;9.90;6.70;;;14.70;99.90;;;;;;5033009;28;20300;-74
2021/05/11 00:37:05;;;;;;;8.52;5.75;;;14.60;99.90;;;;;;5033229;28;20292;-74
2021/05/11 00:39:31;;;;;;;11.65;7.32;;;14.70;99.90;;;;;;5033472;28;20236;-75
2021/05/11 00:41:57;;;;;;;11.30;6.55;;;14.70;99.90;;;;;;5033120;28;20611;-74
2021/05/11 00:44:26;;;;;;;8.82;5.70;;;14.80;99.90;;;;;;5033035;28;20295;-75
2021/05/11 00:46:57;;;;;;;9.55;6.10;;;14.90;99.90;;;;;;5032553;28;20231;-75
2021/05/11 00:49:24;;;;;;;8.57;5.82;;;14.90;99.90;;;;;;5033136;28;20255;-76
2021/05/11 00:51:51;;;;;;;10.18;6.03;;;14.90;99.90;;;;;;5033032;28;20220;-75
2021/05/11 00:54:20;;;;;;;13.65;6.78;;;14.70;99.90;;;;;;5032878;28;20208;-76
2021/05/11 00:56:47;;;;;;;12.15;7.82;;;14.60;99.90;;;;;;5032680;28;20196;-75
2021/05/11 00:59:17;;;;;;;10.30;6.85;;;14.50;99.90;;;;;;5032799;28;20294;-77
2021/05/11 01:01:44;;;;;;;11.63;6.72;;;14.60;99.90;;;;;;5033020;28;20205;-76
2021/05/11 01:04:10;;;;;;;11.20;6.47;;;14.70;99.90;;;;;;5032943;28;20295;-76
2021/05/11 01:06:36;;;;;;;10.73;6.50;;;14.60;99.90;;;;;;5032418;28;20238;-75
2021/05/11 01:09:03;;;;;;;10.95;6.57;;;14.60;99.90;;;;;;5032959;28;20230;-77
2021/05/11 01:11:31;;;;;;;10.65;6.30;;;14.50;99.90;;;;;;5032635;28;20290;-77
2021/05/11 01:13:57;;;;;;;10.57;6.47;;;14.60;99.90;;;;;;5032485;28;20200;-76
2021/05/11 01:16:25;;;;;;;9.57;6.72;;;14.50;99.90;;;;;;5033339;28;20311;-76
2021/05/11 01:18:53;;;;;;;9.13;5.85;;;14.40;99.90;;;;;;5034597;28;20663;-75
2021/05/11 01:21:29;;;;;;;10.88;6.07;;;14.50;99.90;;;;;;5034674;28;20202;-75
2021/05/11 01:24:01;;;;;;;12.05;6.07;;;14.40;99.90;;;;;;5034735;28;20204;-75
2021/05/11 01:26:31;;;;;;;10.30;6.15;;;14.50;99.90;;;;;;5034792;28;20614;-74
2021/05/11 01:29:07;;;;;;;9.55;5.82;;;14.50;99.90;;;;;;5034477;28;20205;-74
2021/05/11 01:48:16;;;;;;;11.45;7.13;;;14.50;99.90;;;;;;5034762;28;20218;-74
2021/05/11 01:50:47;;;;;;;9.15;5.82;;;14.40;99.90;;;;;;5036140;28;20224;-75
2021/05/11 02:10:32;;;;;;;9.18;5.80;;;14.60;99.90;;;;;;5035539;28;20199;-75
2021/05/11 02:23:56;;;;;;;9.15;4.78;;;14.50;99.90;;;;;;5039064;28;20249;-75
2021/05/11 02:26:23;;;;;;;7.75;5.20;;;14.50;99.90;;;;;;5038164;28;20275;-74
2021/05/11 02:28:50;;;;;;;10.13;5.85;;;14.60;99.90;;;;;;5037535;28;20205;-74
2021/05/11 02:31:16;;;;;;;10.85;6.32;;;14.60;99.90;;;;;;5037789;28;20295;-74
2021/05/11 02:33:43;;;;;;;8.93;5.32;;;14.60;99.90;;;;;;5038422;28;20208;-75
2021/05/11 02:36:09;;;;;;;9.80;5.53;;;14.60;99.90;;;;;;5037340;28;20275;-74
2021/05/11 02:38:35;;;;;;;10.88;5.70;;;14.50;99.90;;;;;;5038094;28;20264;-75
2021/05/11 02:41:02;;;;;;;9.88;6.03;;;14.50;99.90;;;;;;5037663;28;20235;-74
2021/05/11 02:43:31;;;;;;;9.63;5.80;;;14.60;99.90;;;;;;5036866;28;20678;-74
2021/05/11 02:45:59;;;;;;;10.13;5.53;;;14.50;99.90;;;;;;5037031;28;20626;-74
2021/05/11 02:48:25;;;;;;;11.73;5.70;;;14.50;99.90;;;;;;5037150;28;20291;-74
2021/05/11 02:50:51;;;;;;;9.07;5.20;;;14.50;99.90;;;;;;5037473;28;20219;-74
2021/05/11 02:53:18;;;;;;;11.75;5.53;;;14.50;99.90;;;;;;5037564;28;20236;-74
2021/05/11 02:55:44;;;;;;;11.30;6.25;;;14.50;99.90;;;;;;5038397;28;20298;-74
2021/05/11 02:58:12;;;;;;;8.82;5.55;;;14.50;99.90;;;;;;5038356;28;20272;-75
2021/05/11 03:00:38;;;;;;;8.93;5.40;;;14.50;99.90;;;;;;5037915;28;20200;-74
2021/05/11 03:03:06;;;;;;;12.95;7.80;;;14.60;99.90;;;;;;5038100;28;20242;-75
2021/05/11 03:05:32;;;;;;;10.30;6.00;;;14.50;99.90;;;;;;5037583;28;20233;-74
2021/05/11 03:07:59;;;;;;;9.15;5.50;;;14.60;99.90;;;;;;5038678;28;20517;-75
2021/05/11 03:10:25;;;;;;;8.45;4.40;;;14.50;99.90;;;;;;5038024;28;20627;-75
2021/05/11 03:12:51;;;;;;;9.63;6.00;;;14.60;99.90;;;;;;5037902;28;20204;-75
2021/05/11 03:15:18;;;;;;;8.35;5.10;;;14.50;99.90;;;;;;5037770;28;20264;-74
2021/05/11 03:17:44;;;;;;;8.23;4.85;;;14.50;99.90;;;;;;5037354;28;20254;-74
2021/05/11 03:20:12;;;;;;;10.48;5.50;;;14.50;99.90;;;;;;5037113;28;20707;-75
2021/05/11 03:22:39;;;;;;;10.52;5.75;;;14.60;99.90;;;;;;5037415;28;20689;-75
2021/05/11 03:25:07;;;;;;;10.00;5.10;;;14.50;99.90;;;;;;5036474;28;20224;-74
2021/05/11 03:27:33;;;;;;;7.80;5.55;;;14.60;99.90;;;;;;5035577;28;20239;-74
2021/05/11 03:29:59;;;;;;;9.50;5.43;;;14.60;99.90;;;;;;5036903;28;20287;-75
2021/05/11 03:32:26;;;;;;;9.30;5.72;;;14.60;99.90;;;;;;5036872;28;20266;-74
2021/05/11 03:34:52;;;;;;;10.93;5.03;;;14.40;99.90;;;;;;5036792;28;20311;-74
2021/05/11 03:37:20;;;;;;;8.65;5.72;;;14.50;99.90;;;;;;5037115;28;20232;-74
2021/05/11 03:39:46;;;;;;;9.30;5.35;;;14.50;99.90;;;;;;5037377;28;20282;-75
2021/05/11 03:42:16;;;;;;;9.80;5.63;;;14.40;99.90;;;;;;5036437;28;20559;-75
2021/05/11 03:44:46;;;;;;;9.73;5.38;;;14.40;99.90;;;;;;5037255;28;20228;-75
2021/05/11 03:47:14;;;;;;;12.27;6.97;;;14.20;99.90;;;;;;5036792;28;20743;-74
2021/05/11 03:49:40;;;;;;;12.55;7.35;;;14.10;99.90;;;;;;5037178;28;20204;-75
2021/05/11 03:52:07;;;;;;;10.75;6.22;;;14.10;99.90;;;;;;5037633;28;20671;-74
2021/05/11 03:54:34;;;;;;;10.35;5.47;;;14.10;99.90;;;;;;5037489;28;20208;-75
2021/05/11 03:57:01;;;;;;;11.68;6.38;;;14.20;99.90;;;;;;5036748;28;20218;-75
2021/05/11 03:59:28;;;;;;;12.23;6.53;;;14.20;99.90;;;;;;5037755;28;20295;-75
2021/05/11 04:01:54;;;;;;;12.63;6.97;;;14.10;99.90;;;;;;5036520;28;20235;-75
2021/05/11 04:04:20;;;;;;;13.07;6.65;;;14.00;99.90;;;;;;5036421;28;20750;-75
2021/05/11 04:06:47;;;;;;;11.43;6.25;;;14.00;99.90;;;;;;5037138;28;20259;-74
2021/05/11 04:09:18;;;;;;;13.45;7.30;;;14.00;99.90;;;;;;5037134;28;20204;-75
2021/05/11 04:12:06;;;;;;;13.50;6.63;;;13.90;99.90;;;;;;5036913;28;20212;-75
2021/05/11 04:17:22;;;;;;;12.48;6.95;;;14.00;99.90;;;;;;5036462;28;20196;-75
2021/05/11 04:19:48;;;;;;;14.30;7.43;;;14.10;99.90;;;;;;5037324;28;20354;-75
2021/05/11 04:22:14;;;;;;;12.88;6.38;;;14.30;99.90;;;;;;5036673;28;20208;-75
2021/05/11 04:24:41;;;;;;;12.98;6.80;;;14.40;99.90;;;;;;5035997;28;20228;-75
2021/05/11 04:27:08;;;;;;;11.65;6.85;;;14.40;99.90;;;;;;5035205;28;20267;-75
2021/05/11 04:29:35;;;;;;;12.77;7.60;;;14.40;99.90;;;;;;5035141;28;20630;-75
2021/05/11 04:32:01;;;;;;;14.40;6.90;;;14.30;99.90;;;;;;5035393;28;20266;-75
2021/05/11 04:34:27;;;;;;;14.57;7.82;;;14.10;99.90;;;;;;5035523;28;20236;-75
2021/05/11 04:36:54;;;;;;;13.18;7.70;;;14.10;99.90;;;;;;5035240;28;20291;-74
2021/05/11 04:39:20;;;;;;;16.58;7.35;;;14.20;99.90;;;;;;5036244;28;20296;-75
2021/05/11 04:41:46;;;;;;;15.88;7.55;;;14.20;99.90;;;;;;5037036;28;20618;-75
2021/05/11 04:44:15;;;;;;;12.10;7.40;;;14.20;99.90;;;;;;5036759;28;20211;-75
2021/05/11 04:46:47;;;;;;;14.73;8.35;;;14.30;99.90;;;;;;5035716;28;20327;-74
2021/05/11 04:49:13;;;;;;;15.23;8.10;;;14.40;99.90;;;;;;5035802;28;20639;-75
2021/05/11 04:51:41;;;;;;;13.75;7.55;;;14.40;99.90;;;;;;5036286;28;20246;-75
2021/05/11 04:54:07;;;;;;;11.52;6.88;;;14.50;99.90;;;;;;5038176;28;20222;-75
2021/05/11 04:56:33;;;;;;;14.52;7.70;;;14.50;99.90;;;;;;5037503;28;20283;-75
2021/05/11 04:59:00;;;;;;;12.15;7.15;;;14.50;99.90;;;;;;5037245;28;20682;-75
2021/05/11 05:01:27;;;;;;;10.32;6.78;;;14.60;99.90;;;;;;5036959;28;20681;-75
2021/05/11 05:03:56;;;;;;;16.88;7.47;;;14.60;99.90;;;;;;5036296;28;20237;-75
2021/05/11 05:06:23;;;;;;;15.55;8.05;;;14.60;99.90;;;;;;5036884;28;20224;-74
2021/05/11 05:08:49;;;;;;;14.05;8.45;;;14.50;99.90;;;;;;5036982;28;20311;-75
2021/05/11 05:11:17;;;;;;;14.57;7.40;;;14.50;99.90;;;;;;5036592;28;20814;-75
2021/05/11 05:13:44;;;;;;;12.35;7.13;;;14.40;99.90;;;;;;5036384;28;20251;-75
2021/05/11 05:16:10;;;;;;;11.65;6.75;;;14.40;99.90;;;;;;5035761;28;20225;-74
2021/05/11 05:18:37;;;;;;;13.10;7.53;;;14.50;99.90;;;;;;5035962;28;20208;-74
2021/05/11 05:21:07;;;;;;;14.25;7.80;;;14.50;99.90;;;;;;5036274;28;20208;-75
2021/05/11 05:23:39;;;;;;;13.10;6.90;;;14.50;99.90;;;;;;5035929;28;20300;-75
2021/05/11 05:26:08;;;;;;;15.75;7.32;;;14.50;99.90;;;;;;5034674;28;20678;-74
2021/05/11 05:28:37;;;;;;;10.82;6.88;;;14.30;99.90;;;;;;5034463;28;20204;-74
2021/05/11 05:31:04;;;;;;;12.10;6.60;;;14.20;99.90;;;;;;5035468;28;20209;-75
2021/05/11 05:33:31;;;;;;;13.18;7.18;;;14.30;99.90;;;;;;5035382;28;20201;-74
2021/05/11 05:35:58;;;;;;;13.38;7.55;;;14.30;99.90;;;;;;5034820;28;20656;-74
2021/05/11 05:38:26;;;;;;;13.32;7.70;;;14.30;99.90;;;;;;5034673;28;20277;-74
2021/05/11 05:40:57;;;;;;;12.40;7.07;;;14.30;99.90;;;;;;5035134;28;20784;-75
2021/05/11 05:43:23;;;;;;;12.93;7.03;;;14.40;99.90;;;;;;5035047;28;20220;-75
2021/05/11 05:45:52;;;;;;;12.45;7.15;;;14.50;99.90;;;;;;5035123;28;20262;-74
2021/05/11 05:48:18;;;;;;;12.20;7.82;;;14.50;99.90;;;;;;5036132;28;20296;-75
2021/05/11 05:50:46;;;;;;;11.55;7.10;;;14.50;99.90;;;;;;5039015;28;20556;-74
2021/05/11 05:53:14;;;;;;;13.32;7.60;;;14.60;99.90;;;;;;5039281;28;20246;-75
2021/05/11 05:55:42;;;;;;;10.95;6.85;;;14.60;99.90;;;;;;5038546;28;20231;-74
2021/05/11 05:58:08;;;;;;;12.43;6.60;;;14.70;99.90;;;;;;5038763;28;20533;-74
2021/05/11 06:00:35;;;;;;;12.65;6.80;;;14.70;99.90;;;;;;5038074;28;20283;-75
2021/05/11 06:03:05;;;;;;;9.75;6.03;;;14.60;99.90;;;;;;5039105;28;20209;-75
2021/05/11 06:05:32;;;;;;;15.80;7.50;;;14.50;99.90;;;;;;5038785;28;20694;-74
2021/05/11 06:07:59;;;;;;;11.73;6.32;;;14.50;99.90;;;;;;5038173;28;20200;-75
2021/05/11 06:10:29;;;;;;;11.63;6.95;;;14.50;99.90;;;;;;5037605;28;20305;-74
2021/05/11 06:13:01;;;;;;;12.68;6.38;;;14.50;99.90;;;;;;5038036;28;20266;-75
2021/05/11 06:18:12;;;;;;;12.10;7.20;;;14.40;99.90;;;;;;5039031;28;20677;-75
2021/05/11 06:20:39;;;;;;;13.35;6.60;;;14.40;99.90;;;;;;5038760;28;20262;-74
2021/05/11 06:23:05;;;;;;;10.48;6.90;;;14.50;99.90;;;;;;5037354;28;20295;-74
2021/05/11 06:25:32;;;;;;;11.05;6.78;;;14.60;99.90;;;;;;5037381;28;20225;-74
2021/05/11 06:27:59;;;;;;;8.93;6.55;;;14.50;99.90;;;;;;5038769;28;20228;-75
2021/05/11 06:30:26;;;;;;;10.25;6.57;;;14.50;99.90;;;;;;5038907;28;20204;-75
2021/05/11 06:32:52;;;;;;;12.63;7.65;;;14.50;99.90;;;;;;5038632;28;20698;-75
2021/05/11 06:35:22;;;;;;;11.77;7.40;;;14.50;99.90;;;;;;5038494;28;20615;-74
2021/05/11 06:37:55;;;;;;;13.52;7.80;;;14.50;99.90;;;;;;5038262;28;20220;-75
2021/05/11 06:40:22;;;;;;;13.38;7.55;;;14.60;99.90;;;;;;5038271;28;20577;-75
2021/05/11 06:42:49;;;;;;;14.70;7.50;;;14.60;99.90;;;;;;5039245;28;20209;-75
2021/05/11 06:45:37;;;;;;;11.23;7.00;;;14.60;99.90;;;;;;5038409;28;20225;-75
2021/05/11 06:48:06;;;;;;;11.00;6.80;;;14.70;99.90;;;;;;5038667;28;20208;-75
2021/05/11 06:50:37;;;;;;;10.68;6.00;;;14.70;99.90;;;;;;5038179;28;20691;-75
2021/05/11 06:53:11;;;;;;;11.00;7.05;;;14.80;99.90;;;;;;5038741;28;20213;-75
2021/05/11 06:55:40;;;;;;;11.35;6.50;;;14.80;99.90;;;;;;5036619;28;20220;-74
2021/05/11 06:58:08;;;;;;;9.98;6.50;;;14.80;99.90;;;;;;5037042;28;20330;-74
2021/05/11 07:00:34;;;;;;;12.02;6.70;;;14.70;99.90;;;;;;5037170;28;20240;-75
2021/05/11 07:03:00;;;;;;;9.57;5.75;;;14.80;99.90;;;;;;5037342;28;20216;-75
2021/05/11 07:05:30;;;;;;;10.60;6.70;;;14.80;99.90;;;;;;5029236;28;20250;-76
2021/05/11 07:08:07;;;;;;;10.43;6.55;;;14.90;99.90;;;;;;5034267;28;20216;-74
2021/05/11 07:10:35;;;;;;;10.70;6.45;;;15.00;99.90;;;;;;5035324;28;20620;-74
2021/05/11 07:13:10;;;;;;;10.30;6.78;;;15.10;99.90;;;;;;5035044;28;20204;-74
2021/05/11 07:15:39;;;;;;;9.70;6.38;;;15.10;99.90;;;;;;5034660;28;20228;-74
2021/05/11 07:18:10;;;;;;;9.45;6.78;;;15.20;99.90;;;;;;5035105;28;20626;-78
2021/05/11 07:20:37;;;;;;;9.27;6.20;;;15.20;99.90;;;;;;5034844;28;20209;-77
2021/05/11 07:23:03;;;;;;;10.48;6.30;;;15.20;99.90;;;;;;5035023;28;20204;-77
2021/05/11 07:25:34;;;;;;;8.50;6.15;;;15.20;99.90;;;;;;5034636;28;20230;-77
2021/05/11 07:30:54;;;;;;;10.57;6.70;;;15.30;99.90;;;;;;5034421;28;20640;-76
2021/05/11 07:33:21;;;;;;;10.00;7.03;;;15.40;99.90;;;;;;5034606;28;20688;-76
2021/05/11 07:35:47;;;;;;;9.82;7.15;;;15.30;99.90;;;;;;5034649;28;20227;-75
2021/05/11 07:38:14;;;;;;;9.63;5.97;;;15.40;99.90;;;;;;5034625;28;20260;-75
2021/05/11 07:40:40;;;;;;;9.20;5.93;;;15.40;99.90;;;;;;5034349;28;20251;-76
2021/05/11 07:43:07;;;;;;;9.30;6.45;;;15.40;99.90;;;;;;5034997;28;20289;-75
2021/05/11 07:45:42;;;;;;;11.50;6.80;;;15.40;99.90;;;;;;5034383;28;20321;-75
2021/05/11 07:48:17;;;;;;;10.13;6.72;;;15.40;99.90;;;;;;5034863;28;20216;-76
2021/05/11 07:51:10;;;;;;;10.98;6.32;;;15.30;99.90;;;;;;5034374;28;20255;-76
2021/05/11 08:02:20;;;;;;;9.18;5.75;;;15.20;99.90;;;;;;5034135;28;20272;-76
2021/05/11 08:04:59;;;;;;;8.75;6.07;;;15.00;99.90;;;;;;5034043;28;20247;-76
2021/05/11 08:10:21;;;;;;;10.27;6.45;;;15.20;99.90;;;;;;5033843;28;20197;-76
2021/05/11 08:15:32;;;;;;;8.80;5.82;;;15.40;99.90;;;;;;5033625;28;20224;-75
2021/05/11 08:18:08;;;;;;;8.13;6.05;;;15.60;99.90;;;;;;5033626;28;20549;-72
2021/05/11 08:23:28;;;;;;;7.40;5.20;;;15.70;99.90;;;;;;5021894;28;20203;-78
2021/05/11 08:28:39;;;;;;;8.10;5.88;;;15.70;99.90;;;;;;5033433;28;20293;-76
2021/05/11 08:31:05;;;;;;;9.60;5.80;;;15.70;99.90;;;;;;5033242;28;20210;-76
2021/05/11 08:33:32;;;;;;;8.18;5.90;;;15.70;99.90;;;;;;5033455;28;20298;-77
2021/05/11 08:35:59;;;;;;;8.15;5.80;;;15.70;99.90;;;;;;5033364;28;20314;-76
2021/05/11 08:38:26;;;;;;;7.00;5.18;;;15.80;99.90;;;;;;5033324;28;20204;-76
2021/05/11 08:40:52;;;;;;;7.07;5.57;;;15.90;99.90;;;;;;5033921;28;20658;-74
2021/05/11 08:43:28;;;;;;;6.43;4.85;;;15.80;99.90;;;;;;5034840;28;20302;-75
2021/05/11 08:45:55;;;;;;;9.15;5.30;;;15.80;99.90;;;;;;5034002;28;20229;-75
2021/05/11 08:48:22;;;;;;;7.13;4.97;;;15.80;99.90;;;;;;5034370;28;20216;-75
2021/05/11 08:50:51;;;;;;;6.90;5.93;;;15.90;99.90;;;;;;5034431;28;20211;-75
2021/05/11 08:53:33;;;;;;;8.10;5.72;;;15.80;99.90;;;;;;5034316;28;20681;-76
2021/05/11 09:04:38;;;;;;;7.55;5.47;;;15.80;99.90;;;;;;5034472;28;20729;-75
2021/05/11 09:16:22;;;;;;;6.28;4.50;;;16.00;99.90;;;;;;5033780;28;20766;-75
2021/05/11 09:24:37;;;;;;;7.00;3.75;;;16.00;99.90;;;;;;5034039;28;20202;-75
2021/05/11 09:27:16;;;;;;;4.63;3.78;;;16.00;99.90;;;;;;5033884;28;20268;-75
2021/05/11 09:29:48;;;;;;;3.42;3.13;;;16.20;99.90;;;;;;5034185;28;20550;-75
2021/05/11 09:54:58;;;;;;;6.28;4.25;;;16.40;99.90;;;;;;5111709;27;20513;-74
2021/05/11 09:57:46;;;;;;;5.20;4.28;;;16.50;99.90;;;;;;5111484;28;20727;-74
2021/05/11 10:32:18;;;;;;;5.57;4.35;;;17.20;99.90;;;;;;5076658;28;20280;-74
2021/05/11 10:48:43;;;;;;;8.00;5.55;;;17.60;99.90;;;;;;5079073;28;20688;-74
2021/05/11 10:51:23;;;;;;;8.13;6.47;;;17.80;99.90;;;;;;5110254;28;20251;-74
2021/05/11 10:53:58;;;;;;;8.93;6.00;;;17.80;99.90;;;;;;5110267;28;20222;-74
2021/05/11 10:57:07;;;;;;;8.65;5.90;;;17.50;99.90;;;;;;5110756;28;20224;-74
2021/05/11 11:05:37;;;;;;;8.40;6.32;;;17.40;99.90;;;;;;5101921;28;20576;-74
2021/05/11 11:08:04;;;;;;;8.60;6.10;;;17.50;99.90;;;;;;5096792;28;20202;-74
2021/05/11 11:10:31;;;;;;;11.00;7.03;;;17.50;99.90;;;;;;5097102;28;20214;-74
2021/05/11 11:12:58;;;;;;;9.98;6.75;;;17.50;99.90;;;;;;5096434;28;20222;-74
2021/05/11 11:15:25;;;;;;;11.50;6.88;;;17.70;99.90;;;;;;5096028;28;20255;-74
2021/05/11 11:17:55;;;;;;;9.43;6.90;;;17.90;99.90;;;;;;5097137;28;20206;-74
2021/05/11 11:20:32;;;;;;;10.38;7.00;;;17.90;99.90;;;;;;5097334;28;20656;-74
2021/05/11 11:26:02;;;;;;;11.30;7.50;;;17.30;99.90;;;;;;5096372;28;20580;-74
2021/05/11 11:28:29;;;;;;;13.35;7.72;;;17.20;99.90;;;;;;5096675;28;20246;-74
2021/05/11 11:30:56;;;;;;;11.73;7.80;;;17.10;99.90;;;;;;5096308;28;20204;-74
2021/05/11 11:33:23;;;;;;;12.30;7.47;;;16.80;99.90;;;;;;5096157;28;20256;-74
2021/05/11 11:35:49;;;;;;;10.55;7.25;;;16.80;99.90;;;;;;5096060;28;20770;-74
2021/05/11 11:38:27;;;;;;;11.15;8.18;;;16.80;99.90;;;;;;5096453;28;20208;-74
2021/05/11 11:40:58;;;;;;;11.77;7.90;;;16.90;99.90;;;;;;5096432;28;20285;-74
2021/05/11 11:43:28;;;;;;;10.70;7.28;;;17.10;99.90;;;;;;5096067;28;20594;-73
2021/05/11 11:45:55;;;;;;;10.18;7.13;;;17.30;99.90;;;;;;5095544;28;20725;-74
2021/05/11 11:48:23;;;;;;;9.98;7.13;;;17.40;99.90;;;;;;5096111;28;20205;-74
2021/05/11 11:50:55;;;;;;;9.00;7.40;;;17.50;99.90;;;;;;5096167;28;20206;-74
2021/05/11 11:53:24;;;;;;;9.85;6.35;;;17.50;99.90;;;;;;5095628;28;20225;-74
2021/05/11 11:58:34;;;;;;;10.00;6.70;;;17.70;99.90;;;;;;5081978;28;20194;-74
2021/05/11 12:01:15;;;;;;;8.57;7.32;;;18.00;99.90;;;;;;5096179;28;20234;-74
2021/05/11 12:03:42;;;;;;;7.53;6.65;;;18.30;99.90;;;;;;5096044;28;20209;-74
2021/05/11 12:06:10;;;;;;;8.55;6.97;;;18.40;99.90;;;;;;5095244;28;20770;-74
2021/05/11 12:08:36;;;;;;;8.45;6.78;;;18.40;99.90;;;;;;5095568;28;20214;-74
2021/05/11 12:11:06;;;;;;;9.45;7.63;;;18.30;99.90;;;;;;5095613;28;20354;-74
2021/05/11 12:13:35;;;;;;;7.97;6.22;;;18.10;99.90;;;;;;5095438;28;20232;-74
2021/05/11 12:16:09;;;;;;;7.05;6.35;;;18.00;99.90;;;;;;5094752;28;20218;-74
2021/05/11 12:18:36;;;;;;;7.00;6.07;;;18.00;99.90;;;;;;5095528;28;20289;-73
2021/05/11 12:21:04;;;;;;;6.47;5.88;;;17.90;99.90;;;;;;5095295;28;20202;-74
2021/05/11 12:23:32;;;;;;;6.05;5.43;;;18.00;99.90;;;;;;5095385;28;20195;-74
2021/05/11 12:26:00;;;;;;;6.00;5.40;;;18.10;99.90;;;;;;5094836;28;20252;-74
2021/05/11 12:28:30;;;;;;;5.75;5.25;;;18.10;99.90;;;;;;5095462;28;20237;-74
2021/05/11 12:30:56;;;;;;;8.68;5.90;;;18.00;99.90;;;;;;5095452;28;20202;-74
2021/05/11 12:33:32;;;;;;;6.18;5.63;;;18.00;99.90;;;;;;5094881;28;20228;-75
2021/05/11 12:36:02;;;;;;;6.30;5.70;;;18.10;99.90;;;;;;5094852;28;20308;-74
2021/05/11 12:38:31;;;;;;;6.47;5.88;;;18.10;99.90;;;;;;5095483;28;20214;-74
2021/05/11 12:41:04;;;;;;;7.35;6.65;;;18.00;99.90;;;;;;5095524;28;20295;-74
2021/05/11 12:43:48;;;;;;;7.20;5.72;;;18.00;99.90;;;;;;5095213;28;20193;-74
2021/05/11 12:46:17;;;;;;;7.88;6.47;;;17.70;99.90;;;;;;5095056;28;20355;-74
2021/05/11 12:48:58;;;;;;;7.50;6.70;;;17.80;99.90;;;;;;5094765;28;20202;-74
2021/05/11 12:51:29;;;;;;;7.25;6.55;;;17.80;99.90;;;;;;5094978;28;20212;-74
2021/05/11 12:53:57;;;;;;;9.15;6.72;;;17.70;99.90;;;;;;5094272;28;20247;-74
2021/05/11 12:56:41;;;;;;;7.80;6.32;;;17.70;99.90;;;;;;5094487;28;20222;-74
2021/05/11 12:59:10;;;;;;;15.13;11.00;;;17.80;99.90;;;;;;5094551;28;20270;-74
2021/05/11 13:01:51;;;;;;;7.05;6.28;;;17.80;99.90;;;;;;5094817;28;20204;-74
2021/05/11 13:04:55;;;;;;;6.72;6.03;;;17.80;99.90;;;;;;5094970;28;20225;-74
2021/05/11 13:16:07;;;;;;;6.15;5.55;;;17.60;99.90;;;;;;5094260;28;20217;-74
2021/05/11 13:26:54;;;;;;;5.60;5.10;;;17.40;99.90;;;;;;5094083;28;20184;-74
2021/05/11 13:29:33;;;;;;;5.68;5.18;;;17.30;99.90;;;;;;5094716;28;20202;-74
2021/05/11 13:32:02;;;;;;;5.53;5.10;;;17.10;99.90;;;;;;5094825;28;20213;-74
2021/05/11 13:34:28;;;;;;;7.10;5.75;;;17.10;99.90;;;;;;5094706;28;20261;-74
2021/05/11 13:36:54;;;;;;;7.65;6.82;;;16.90;99.90;;;;;;5094801;28;20241;-74
2021/05/11 13:39:20;;;;;;;6.43;5.85;;;16.80;99.90;;;;;;5094643;28;20287;-74
2021/05/11 13:41:47;;;;;;;8.35;6.63;;;16.60;99.90;;;;;;5094820;28;20293;-74
2021/05/11 13:44:13;;;;;;;8.63;7.68;;;16.50;99.90;;;;;;5094309;28;20197;-74
2021/05/11 13:46:40;;;;;;;8.40;7.50;;;16.30;99.90;;;;;;5093907;28;20655;-74
2021/05/11 13:49:07;;;;;;;7.80;7.00;;;16.30;99.90;;;;;;5095203;28;20209;-74
2021/05/11 13:51:33;;;;;;;9.50;8.20;;;16.20;99.90;;;;;;5094317;28;20295;-74
2021/05/11 13:54:03;;;;;;;10.68;8.73;;;16.10;99.90;;;;;;5093697;28;20230;-74
2021/05/11 13:56:38;;;;;;;8.82;7.82;;;16.10;99.90;;;;;;5095032;28;20319;-74
2021/05/11 14:02:13;;;;;;;10.25;8.25;;;16.20;99.90;;;;;;5094324;28;20208;-74
2021/05/11 14:04:40;;;;;;;9.27;7.85;;;16.00;99.90;;;;;;5094383;28;20208;-74
2021/05/11 14:07:06;;;;;;;11.30;8.60;;;15.90;99.90;;;;;;5094222;28;20266;-74
2021/05/11 14:09:33;;;;;;;11.05;8.05;;;16.00;99.90;;;;;;5093830;28;20293;-74
2021/05/11 14:11:59;;;;;;;11.20;8.10;;;15.80;99.90;;;;;;5093771;28;20204;-74
2021/05/11 14:14:26;;;;;;;9.02;6.90;;;15.90;99.90;;;;;;5093791;28;20364;-74
2021/05/11 14:16:53;;;;;;;7.28;5.70;;;15.70;99.90;;;;;;5093490;28;20304;-74
2021/05/11 14:19:20;;;;;;;6.03;5.40;;;15.70;99.90;;;;;;5094211;28;20208;-74
2021/05/11 14:21:46;;;;;;;7.03;5.90;;;15.80;99.90;;;;;;5093759;28;20232;-74
2021/05/11 14:24:13;;;;;;;5.30;4.80;;;15.80;99.90;;;;;;5093575;28;20199;-74
2021/05/11 14:26:40;;;;;;;5.78;4.68;;;15.80;99.90;;;;;;5093441;28;20233;-74
2021/05/11 14:29:07;;;;;;;5.18;4.60;;;15.60;99.90;;;;;;5093888;28;20203;-74
2021/05/11 14:31:34;;;;;;;4.93;4.43;;;15.60;99.90;;;;;;5094168;28;20563;-74
2021/05/11 14:34:01;;;;;;;5.07;4.57;;;15.60;99.90;;;;;;5093395;28;20220;-74
2021/05/11 14:36:27;;;;;;;4.53;4.13;;;15.60;99.90;;;;;;5093191;28;20231;-74
2021/05/11 14:38:54;;;;;;;4.90;3.60;;;15.30;99.90;;;;;;5093575;28;20203;-74
2021/05/11 14:41:20;;;;;;;4.30;3.90;;;15.20;99.90;;;;;;5097293;28;20552;-75
2021/05/11 14:43:47;;;;;;;5.00;3.60;;;15.20;99.90;;;;;;5097631;28;20196;-75
2021/05/11 14:46:13;;;;;;;5.72;3.67;;;15.10;99.90;;;;;;5097346;28;20314;-74
2021/05/11 14:48:40;;;;;;;3.60;3.30;;;15.20;99.90;;;;;;5097139;28;20234;-75
2021/05/11 14:51:08;;;;;;;6.05;3.25;;;15.30;99.90;;;;;;5097398;28;20208;-75
2021/05/11 14:53:36;;;;;;;3.75;2.55;;;15.50;99.90;;;;;;5097059;28;20314;-75
2021/05/11 14:56:02;;;;;;;2.47;2.28;;;15.40;99.90;;;;;;5096946;28;20233;-74
2021/05/11 14:58:29;;;;;;;2.08;1.75;;;15.40;99.90;;;;;;5097270;28;20577;-74
2021/05/11 15:00:55;;;;;;;1.73;1.63;;;15.30;99.90;;;;;;5097053;28;20231;-75
2021/05/11 15:03:21;;;;;;;2.00;1.90;;;15.30;99.90;;;;;;5096541;28;20649;-75
2021/05/11 15:05:48;;;;;;;2.38;1.90;;;15.30;99.90;;;;;;5096269;28;20224;-74
2021/05/11 15:08:15;;;;;;;2.30;2.10;;;15.20;99.90;;;;;;5096879;28;20203;-75
2021/05/11 15:10:43;;;;;;;4.28;3.42;;;15.20;99.90;;;;;;5096952;28;20613;-75
2021/05/11 15:13:09;;;;;;;2.40;2.20;;;15.20;99.90;;;;;;5096898;28;20257;-74
2021/05/11 15:15:38;;;;;;;3.20;2.70;;;15.20;99.90;;;;;;5096334;28;20733;-74
2021/05/11 15:18:05;;;;;;;2.60;2.13;;;15.30;99.90;;;;;;5096970;28;20251;-74
2021/05/11 15:20:33;;;;;;;2.50;2.30;;;15.20;99.90;;;;;;5096501;28;20205;-75
2021/05/11 15:23:00;;;;;;;2.35;2.20;;;15.20;99.90;;;;;;5096167;28;20293;-74
2021/05/11 15:25:27;;;;;;;2.17;1.83;;;15.20;99.90;;;;;;5095752;28;20637;-74
2021/05/11 15:27:55;;;;;;;2.10;1.90;;;15.30;99.90;;;;;;5096642;28;20721;-74
2021/05/11 15:30:23;;;;;;;1.75;1.65;;;15.20;99.90;;;;;;5096217;28;20223;-75
2021/05/11 15:32:53;;;;;;;1.70;1.60;;;15.20;99.90;;;;;;5095977;28;20664;-74
2021/05/11 15:35:23;;;;;;;1.67;1.58;;;15.20;99.90;;;;;;5096143;28;20223;-74
2021/05/11 15:37:53;;;;;;;1.85;1.75;;;15.10;99.90;;;;;;5096427;28;20206;-74
2021/05/11 15:40:21;;;;;;;1.50;1.40;;;15.10;99.90;;;;;;5096470;28;20303;-74
2021/05/11 15:42:49;;;;;;;1.85;1.75;;;15.20;99.90;;;;;;5096417;28;20209;-74
2021/05/11 15:45:16;;;;;;;2.75;2.53;;;15.20;99.90;;;;;;5096138;28;20224;-74
2021/05/11 15:47:52;;;;;;;2.38;2.17;;;15.30;99.90;;;;;;5096051;28;20231;-74
2021/05/11 15:50:20;;;;;;;2.40;2.20;;;15.30;99.90;;;;;;5096148;28;20586;-74
2021/05/11 15:52:47;;;;;;;1.60;1.40;;;15.30;99.90;;;;;;5096277;28;20580;-74
2021/05/11 15:55:14;;;;;;;2.35;1.58;;;15.30;99.90;;;;;;5096847;28;20227;-74
2021/05/11 15:57:40;;;;;;;1.30;1.20;;;15.20;99.90;;;;;;5096069;28;20291;-73
2021/05/11 16:00:09;;;;;;;1.13;1.00;;;15.20;99.90;;;;;;5096382;28;20210;-74
2021/05/11 16:02:35;;;;;;;2.65;1.30;;;15.20;99.90;;;;;;5097095;28;20680;-74
2021/05/11 16:05:02;;;;;;;1.50;1.40;;;15.10;99.90;;;;;;5097977;28;20253;-74
2021/05/11 16:07:28;;;;;;;0.90;0.90;;;15.10;99.90;;;;;;5097227;28;20202;-73